Time;durP1;ratioP1;P1;durP2;ratioP2;P2;SDS_P1;SDS_P2;PMS_P1;PMS_P2;Temp;Humidity;BMP_temperature;BMP_pressure;BME280_temperature;BME280_humidity;BME280_pressure;Samples;Min_cycle;Max_cycle;Signal;HPM_P1;HPM_P2
2021/03/13 00:00:50;;;;;;;35.15;7.85;;;10.30;99.90;;;9.51;96.25;100487.84;4220411;28;20415;-80
2021/03/13 00:02:51;;;;;;;26.63;6.45;;;10.30;99.90;;;9.37;95.82;100477.88;4219082;28;20026;-79
2021/03/13 00:04:52;;;;;;;31.48;7.38;;;10.30;99.90;;;9.38;96.57;100497.94;4219272;28;20028;-79
2021/03/13 00:06:53;;;;;;;27.25;5.88;;;10.20;99.90;;;9.39;96.73;100494.34;4215985;28;20031;-79
2021/03/13 00:08:54;;;;;;;31.33;8.00;;;10.20;99.90;;;9.34;97.19;100478.19;4202159;28;20064;-79
2021/03/13 00:10:55;;;;;;;23.30;5.28;;;10.20;99.90;;;9.25;98.13;100487.00;4220407;28;20436;-79
2021/03/13 00:12:56;;;;;;;24.50;5.07;;;10.10;99.90;;;9.18;98.41;100488.59;4220284;28;20036;-80
2021/03/13 00:14:57;;;;;;;25.60;7.32;;;10.10;99.90;;;9.11;98.46;100466.53;4220217;28;20070;-79
2021/03/13 00:16:58;;;;;;;26.52;4.95;;;10.00;99.90;;;9.13;96.48;100454.84;4220118;28;20027;-79
2021/03/13 00:18:59;;;;;;;16.35;4.28;;;9.90;99.90;;;9.07;96.01;100462.53;4219019;28;20020;-79
2021/03/13 00:21:00;;;;;;;15.95;4.15;;;9.80;99.90;;;9.05;95.58;100461.88;4220194;28;20031;-79
2021/03/13 00:23:03;;;;;;;16.17;4.13;;;9.80;99.90;;;9.04;95.42;100447.06;4218786;28;20020;-79
2021/03/13 00:25:07;;;;;;;26.00;5.05;;;9.80;99.90;;;9.03;95.40;100440.97;4201974;28;20549;-80
2021/03/13 00:27:08;;;;;;;15.90;4.18;;;9.80;99.90;;;8.97;95.49;100417.06;4220168;28;20027;-79
2021/03/13 00:29:09;;;;;;;17.70;4.25;;;9.70;99.90;;;9.01;96.13;100432.41;4218602;28;20041;-79
2021/03/13 00:31:10;;;;;;;23.65;4.82;;;9.70;99.90;;;8.94;96.60;100441.03;4220017;28;20051;-79
2021/03/13 00:33:18;;;;;;;20.48;6.82;;;9.70;99.90;;;8.96;96.68;100425.97;4206070;28;20028;-79
2021/03/13 00:35:21;;;;;;;22.67;4.82;;;9.70;99.90;;;9.10;96.41;100430.66;4218600;28;20016;-79
2021/03/13 00:37:22;;;;;;;29.92;5.68;;;9.70;99.90;;;9.04;96.84;100420.75;4219684;28;20399;-79
2021/03/13 00:39:23;;;;;;;26.48;4.75;;;9.70;99.90;;;9.09;97.29;100402.69;4213092;28;20016;-79
2021/03/13 00:41:24;;;;;;;27.95;6.90;;;9.80;99.90;;;9.13;97.58;100410.13;4219694;28;20111;-79
2021/03/13 00:43:25;;;;;;;31.80;7.03;;;9.80;99.90;;;9.14;98.51;100401.22;4219843;28;20575;-79
2021/03/13 00:45:27;;;;;;;31.65;8.93;;;9.80;99.90;;;9.25;98.10;100410.69;4219720;28;20032;-79
2021/03/13 00:47:28;;;;;;;28.42;8.35;;;9.90;99.90;;;9.21;97.75;100412.81;4218329;28;20560;-79
2021/03/13 00:49:29;;;;;;;30.38;7.15;;;10.00;99.90;;;9.07;98.33;100365.19;4217173;28;20077;-79
2021/03/13 00:51:30;;;;;;;30.27;6.20;;;10.10;99.90;;;9.34;97.51;100393.97;4208347;28;20024;-78
2021/03/13 00:53:31;;;;;;;37.55;8.35;;;10.10;99.90;;;9.42;97.29;100413.25;4219367;28;20112;-79
2021/03/13 00:55:33;;;;;;;25.95;7.60;;;10.20;99.90;;;9.38;97.58;100397.91;4219646;28;20387;-79
2021/03/13 00:57:34;;;;;;;29.88;7.03;;;10.20;99.90;;;9.26;98.26;100389.47;4219549;28;20078;-79
2021/03/13 00:59:35;;;;;;;29.60;6.05;;;10.20;99.90;;;9.29;97.72;100378.63;4218505;28;20024;-79
2021/03/13 01:01:36;;;;;;;30.80;5.90;;;10.20;99.90;;;9.38;97.55;100376.84;4219593;28;20107;-79
2021/03/13 01:03:37;;;;;;;29.85;7.55;;;10.20;99.90;;;9.48;97.28;100396.00;4218402;28;20024;-79
2021/03/13 01:05:39;;;;;;;26.88;6.18;;;10.20;99.90;;;9.44;96.63;100386.75;4216112;28;20086;-78
2021/03/13 01:07:40;;;;;;;37.65;9.55;;;10.30;99.90;;;9.45;96.99;100391.88;4205979;28;20024;-79
2021/03/13 01:09:41;;;;;;;39.95;8.07;;;10.30;99.90;;;9.58;96.07;100393.25;4218337;28;20036;-79
2021/03/13 01:11:43;;;;;;;37.08;6.72;;;10.30;99.90;;;9.50;97.37;100396.66;4219412;28;20368;-79
2021/03/13 01:13:44;;;;;;;26.73;6.43;;;10.30;99.90;;;9.49;97.07;100378.41;4219185;28;20036;-79
2021/03/13 01:15:45;;;;;;;26.67;5.75;;;10.30;99.90;;;9.55;96.90;100352.28;4201367;28;20031;-79
2021/03/13 01:17:47;;;;;;;30.52;6.88;;;10.30;99.90;;;9.50;97.32;100372.16;4210074;28;20441;-79
2021/03/13 01:19:47;;;;;;;33.17;6.18;;;10.40;99.90;;;9.47;98.55;100370.66;4218133;28;20468;-79
2021/03/13 01:21:48;;;;;;;31.98;6.97;;;10.30;99.90;;;9.50;99.08;100372.16;4214880;28;20054;-79
2021/03/13 01:23:49;;;;;;;37.95;7.68;;;10.30;99.90;;;9.46;100.00;100369.00;4205286;28;20024;-80
2021/03/13 01:25:50;;;;;;;32.63;8.18;;;10.30;99.90;;;9.41;100.00;100379.16;4219215;28;20116;-79
2021/03/13 01:27:52;;;;;;;34.00;6.75;;;10.30;99.90;;;9.34;100.00;100338.69;4218026;28;20134;-79
2021/03/13 01:29:53;;;;;;;37.17;8.73;;;10.20;99.90;;;9.31;100.00;100368.78;4198231;28;20028;-78
2021/03/13 01:31:54;;;;;;;29.35;7.32;;;10.20;99.90;;;9.36;100.00;100345.44;4207418;28;20071;-79
2021/03/13 01:33:55;;;;;;;41.58;8.82;;;10.20;99.90;;;9.34;100.00;100346.59;4218976;28;20040;-80
2021/03/13 01:35:56;;;;;;;37.55;8.93;;;10.20;99.90;;;9.26;100.00;100330.72;4218955;28;20073;-79
2021/03/13 01:37:57;;;;;;;43.33;9.43;;;10.20;99.90;;;9.40;100.00;100322.25;4218686;28;20016;-80
2021/03/13 01:39:58;;;;;;;38.17;7.35;;;10.10;99.90;;;9.40;100.00;100331.00;4218968;28;20055;-80
2021/03/13 01:41:59;;;;;;;33.22;7.47;;;10.20;99.90;;;9.41;100.00;100327.34;4217915;28;20031;-79
2021/03/13 01:44:00;;;;;;;33.40;6.93;;;10.20;99.90;;;9.47;99.50;100333.78;4212190;28;20557;-79
2021/03/13 01:46:01;;;;;;;31.48;7.95;;;10.30;99.90;;;9.44;98.63;100355.16;4216587;28;20028;-79
2021/03/13 01:48:02;;;;;;;30.70;6.45;;;10.30;99.90;;;9.50;98.06;100345.84;4200145;28;20135;-79
2021/03/13 01:50:09;;;;;;;48.70;7.72;;;10.30;99.90;;;9.52;97.95;100357.84;4217899;28;20491;-79
2021/03/13 01:52:10;;;;;;;26.65;6.60;;;10.30;99.90;;;9.49;97.73;100342.38;4213340;28;20040;-80
2021/03/13 01:54:11;;;;;;;39.03;7.22;;;10.40;99.90;;;9.49;96.72;100336.28;4217449;28;20028;-79
2021/03/13 01:56:14;;;;;;;34.55;8.70;;;10.30;99.90;;;9.47;97.24;100349.59;4205782;28;20024;-79
2021/03/13 01:58:16;;;;;;;33.55;7.80;;;10.30;99.90;;;9.49;96.50;100338.91;4217684;28;20483;-79
2021/03/13 02:00:21;;;;;;;23.92;6.43;;;10.30;99.90;;;9.47;95.67;100325.09;4218717;28;20048;-79
2021/03/13 02:02:22;;;;;;;24.73;5.88;;;10.30;99.90;;;9.39;96.63;100324.06;4217264;28;20095;-79
2021/03/13 02:04:24;;;;;;;30.13;6.45;;;10.30;99.90;;;9.39;96.21;100317.97;4206385;28;20437;-79
2021/03/13 02:06:25;;;;;;;27.67;6.60;;;10.20;99.90;;;9.38;95.61;100319.78;4211023;28;20046;-79
2021/03/13 02:08:41;;;;;;;40.38;8.52;;;10.10;99.90;;;9.38;95.83;100324.22;4218427;28;20110;-79
2021/03/13 02:10:55;;;;;;;40.17;7.10;;;10.20;99.90;;;9.45;95.94;100310.25;4218747;28;20023;-79
2021/03/13 02:13:18;;;;;;;39.10;9.30;;;10.20;99.90;;;9.48;96.38;100309.13;4218421;28;20089;-79
2021/03/13 02:15:45;;;;;;;36.38;7.20;;;10.20;99.90;;;9.53;95.92;100298.91;4218411;28;20026;-79
2021/03/13 02:17:54;;;;;;;27.77;6.53;;;10.30;99.90;;;9.43;97.29;100278.03;4215993;28;20400;-79
2021/03/13 02:20:14;;;;;;;32.35;7.13;;;10.30;99.90;;;9.55;96.60;100304.03;4215360;28;20024;-79
2021/03/13 02:22:18;;;;;;;29.80;5.75;;;10.30;99.90;;;9.55;96.78;100296.16;4218321;28;20040;-79
2021/03/13 02:24:28;;;;;;;28.42;7.85;;;10.30;99.90;;;9.53;96.83;100272.59;4217105;28;20063;-78
2021/03/13 02:27:02;;;;;;;31.02;6.20;;;10.40;99.90;;;9.54;97.28;100268.16;4215830;28;20035;-79
2021/03/13 02:29:15;;;;;;;32.17;8.07;;;10.40;99.90;;;9.55;97.23;100272.44;4217260;28;20028;-79
2021/03/13 02:31:18;;;;;;;33.72;7.63;;;10.40;99.90;;;9.54;96.87;100263.72;4218168;28;20122;-78
2021/03/13 02:33:37;;;;;;;24.93;6.83;;;10.40;99.90;;;9.59;96.16;100258.00;4220571;28;20028;-78
2021/03/13 02:36:02;;;;;;;28.42;5.72;;;10.30;99.90;;;9.56;96.23;100268.84;4217099;28;20266;-79
2021/03/13 02:38:08;;;;;;;26.08;6.68;;;10.40;99.90;;;9.63;95.33;100254.84;4215218;28;20161;-79
2021/03/13 02:40:11;;;;;;;30.67;6.00;;;10.40;99.90;;;9.61;94.69;100234.94;4218254;28;20036;-79
2021/03/13 02:42:13;;;;;;;28.05;6.57;;;10.40;99.90;;;9.49;95.89;100213.38;4216879;28;20095;-78
2021/03/13 02:44:15;;;;;;;30.75;7.10;;;10.50;99.90;;;9.49;96.33;100230.97;4213239;28;20032;-79
2021/03/13 02:46:20;;;;;;;26.88;6.07;;;10.40;99.90;;;9.56;96.02;100216.97;4216828;28;20031;-79
2021/03/13 02:48:22;;;;;;;32.17;7.43;;;10.40;99.90;;;9.53;95.72;100233.09;4216827;28;20060;-79
2021/03/13 02:50:24;;;;;;;26.88;6.78;;;10.40;99.90;;;9.59;94.85;100216.66;4216813;28;20024;-79
2021/03/13 02:52:27;;;;;;;26.42;7.00;;;10.40;99.90;;;9.59;94.33;100219.28;4213575;28;20028;-79
2021/03/13 02:54:29;;;;;;;31.90;6.22;;;10.40;99.90;;;9.61;94.80;100214.72;4203960;28;20020;-78
2021/03/13 02:56:33;;;;;;;31.45;7.07;;;10.50;99.90;;;9.68;93.29;100213.03;4216856;28;20024;-79
2021/03/13 02:58:36;;;;;;;22.38;5.57;;;10.50;99.90;;;9.72;93.49;100224.09;4216762;28;20059;-79
2021/03/13 03:00:40;;;;;;;26.52;6.65;;;10.50;99.90;;;9.75;92.52;100207.97;4217123;28;20574;-79
2021/03/13 03:02:45;;;;;;;21.75;6.65;;;10.60;99.90;;;9.86;92.11;100216.34;4207966;28;20439;-79
2021/03/13 03:04:49;;;;;;;29.98;6.50;;;10.60;99.90;;;9.86;91.91;100213.72;4220024;28;20027;-79
2021/03/13 03:06:55;;;;;;;30.08;6.65;;;10.60;99.90;;;9.78;93.08;100213.72;4216299;28;20028;-79
2021/03/13 03:08:57;;;;;;;28.30;5.68;;;10.60;99.90;;;9.84;93.11;100205.16;4219808;28;20406;-77
2021/03/13 03:10:59;;;;;;;30.00;6.03;;;10.60;99.90;;;9.76;93.94;100207.81;4209086;28;20028;-79
2021/03/13 03:13:03;;;;;;;34.05;6.32;;;10.60;99.90;;;9.84;94.10;100206.97;4212507;28;20031;-79
2021/03/13 03:15:07;;;;;;;39.85;6.85;;;10.60;99.90;;;9.72;94.76;100198.56;4219933;28;20073;-79
2021/03/13 03:17:08;;;;;;;33.63;7.13;;;10.60;99.90;;;9.79;94.84;100186.41;4219371;28;20036;-79
2021/03/13 03:19:10;;;;;;;31.45;7.47;;;10.60;99.90;;;9.78;95.24;100203.19;4210029;28;20013;-79
2021/03/13 03:21:12;;;;;;;40.83;7.13;;;10.60;99.90;;;9.78;95.05;100176.84;4220030;28;20031;-79
2021/03/13 03:23:14;;;;;;;30.95;7.20;;;10.60;99.90;;;9.84;94.23;100205.16;4219773;28;20028;-80
2021/03/13 03:25:15;;;;;;;34.50;7.80;;;10.60;99.90;;;9.93;93.58;100177.84;4203029;28;20047;-79
2021/03/13 03:27:16;;;;;;;38.83;8.10;;;10.70;99.90;;;9.90;94.29;100191.34;4210948;28;20087;-79
2021/03/13 03:29:20;;;;;;;30.02;7.78;;;10.70;99.90;;;9.93;93.73;100169.09;4221163;28;20028;-79
2021/03/13 03:31:21;;;;;;;32.15;6.50;;;10.70;99.90;;;9.91;94.20;100174.56;4221329;28;20028;-79
2021/03/13 03:33:23;;;;;;;21.92;5.78;;;10.80;99.90;;;9.82;94.44;100135.22;4219662;28;20436;-79
2021/03/13 03:35:26;;;;;;;39.80;7.38;;;10.70;99.90;;;9.88;95.77;100166.97;4210039;28;20020;-79
2021/03/13 03:38:01;;;;;;;35.13;8.43;;;10.70;99.90;;;9.73;100.00;100155.47;4214391;28;20043;-79
2021/03/13 03:40:05;;;;;;;39.78;8.25;;;10.70;99.90;;;9.47;100.00;100178.47;4209415;28;20059;-80
2021/03/13 03:42:08;;;;;;;31.17;7.00;;;10.50;99.90;;;9.38;100.00;100161.00;4220823;28;20032;-80
2021/03/13 03:44:14;;;;;;;39.08;6.45;;;10.30;99.90;;;9.35;100.00;100156.91;4220849;28;20449;-79
2021/03/13 03:46:16;;;;;;;38.22;9.38;;;10.20;99.90;;;9.33;100.00;100142.25;4219692;28;20243;-79
2021/03/13 03:48:20;;;;;;;38.25;8.20;;;10.20;99.90;;;9.22;100.00;100145.22;4219544;28;20590;-79
2021/03/13 03:50:23;;;;;;;42.40;8.60;;;10.10;99.90;;;9.31;100.00;100149.50;4220677;28;20035;-79
2021/03/13 03:52:25;;;;;;;39.38;8.73;;;10.10;99.90;;;9.22;100.00;100140.78;4219021;28;20067;-79
2021/03/13 03:54:28;;;;;;;35.03;8.00;;;10.10;99.90;;;9.26;100.00;100163.13;4219519;28;20107;-80
2021/03/13 03:56:29;;;;;;;37.78;7.43;;;10.10;99.90;;;9.34;100.00;100181.59;4219455;28;20023;-79
2021/03/13 03:58:39;;;;;;;40.53;8.68;;;10.10;99.90;;;9.32;100.00;100175.63;4220790;28;20497;-80
2021/03/13 04:00:41;;;;;;;37.88;7.97;;;10.20;99.90;;;9.40;100.00;100180.94;4219191;28;20032;-79
2021/03/13 04:02:43;;;;;;;39.95;8.68;;;10.20;99.90;;;9.47;100.00;100175.81;4219415;28;20027;-79
2021/03/13 04:04:45;;;;;;;33.60;8.50;;;10.20;99.90;;;9.40;100.00;100169.59;4219326;28;20020;-79
2021/03/13 04:06:48;;;;;;;42.80;10.70;;;10.20;99.90;;;9.30;100.00;100151.31;4218968;28;20028;-79
2021/03/13 04:08:54;;;;;;;37.33;7.40;;;10.20;99.90;;;9.34;100.00;100180.75;4219232;28;20057;-79
2021/03/13 04:10:56;;;;;;;41.53;8.85;;;10.20;99.90;;;9.37;100.00;100164.66;4218939;28;20042;-80
2021/03/13 04:12:59;;;;;;;41.53;8.48;;;10.20;99.90;;;9.29;100.00;100183.03;4202249;28;20032;-80
2021/03/13 04:15:01;;;;;;;35.85;7.82;;;10.10;99.90;;;9.24;100.00;100137.97;4219096;28;20020;-80
2021/03/13 04:17:03;;;;;;;32.75;8.32;;;10.10;99.90;;;9.32;100.00;100165.13;4219531;28;20091;-79
2021/03/13 04:19:05;;;;;;;34.55;8.88;;;10.10;99.90;;;9.25;100.00;100163.31;4219180;28;20588;-79
2021/03/13 04:21:07;;;;;;;37.88;8.00;;;10.20;99.90;;;9.26;100.00;100188.63;4220279;28;20024;-79
2021/03/13 04:23:10;;;;;;;36.08;7.75;;;10.10;99.90;;;9.11;100.00;100225.25;4218700;28;20035;-79
2021/03/13 04:25:11;;;;;;;31.17;6.68;;;10.10;99.90;;;9.01;100.00;100210.59;4219060;28;20039;-79
2021/03/13 04:27:15;;;;;;;13.35;4.20;;;10.00;99.90;;;8.86;100.00;100250.66;4219040;28;20024;-79
2021/03/13 04:29:16;;;;;;;16.02;4.28;;;9.90;99.90;;;8.85;100.00;100258.69;4219210;28;20459;-80
2021/03/13 04:31:24;;;;;;;16.55;4.00;;;9.80;99.90;;;8.57;100.00;100244.88;4235583;28;20071;-80
2021/03/13 04:33:26;;;;;;;17.42;3.60;;;9.70;99.90;;;8.54;100.00;100254.91;4201928;28;20056;-80
2021/03/13 04:35:28;;;;;;;12.93;4.03;;;9.60;99.90;;;8.35;100.00;100258.53;4209785;28;20032;-80
2021/03/13 04:37:30;;;;;;;11.85;3.45;;;9.40;99.90;;;8.51;100.00;100255.22;4212799;28;20097;-80
2021/03/13 04:39:32;;;;;;;11.60;3.35;;;9.30;99.90;;;8.13;100.00;100259.00;4218500;28;20147;-80
2021/03/13 04:41:33;;;;;;;15.13;3.80;;;9.20;99.90;;;8.08;100.00;100266.50;4207650;28;20028;-79
2021/03/13 04:43:35;;;;;;;10.10;3.47;;;9.10;99.90;;;8.11;100.00;100263.56;4218796;28;20040;-79
2021/03/13 04:45:37;;;;;;;9.73;2.40;;;9.10;99.90;;;7.83;100.00;100254.94;4213124;28;20088;-78
2021/03/13 04:47:44;;;;;;;9.50;3.13;;;8.90;99.90;;;8.00;100.00;100266.44;4216261;28;20077;-80
2021/03/13 04:49:45;;;;;;;6.70;2.17;;;8.90;99.90;;;7.84;100.00;100282.03;4219961;28;20503;-79
2021/03/13 04:51:47;;;;;;;6.82;2.40;;;8.80;99.90;;;7.65;100.00;100277.75;4218450;28;20032;-80
2021/03/13 04:53:48;;;;;;;7.22;2.53;;;8.70;99.90;;;7.63;100.00;100291.03;4213675;28;20089;-78
2021/03/13 04:55:49;;;;;;;11.40;2.78;;;8.60;99.90;;;7.66;100.00;100290.75;4216898;28;20030;-79
2021/03/13 04:57:50;;;;;;;9.82;3.35;;;8.60;99.90;;;7.56;100.00;100303.09;4218670;28;20079;-80
2021/03/13 04:59:51;;;;;;;12.55;2.30;;;8.60;99.90;;;7.57;100.00;100291.63;4210096;28;20028;-79
2021/03/13 05:01:52;;;;;;;7.63;2.55;;;8.50;99.90;;;7.65;100.00;100304.81;4212887;28;20020;-80
2021/03/13 05:03:53;;;;;;;8.05;2.22;;;8.60;99.90;;;7.55;100.00;100290.13;4219447;28;20505;-79
2021/03/13 05:05:54;;;;;;;11.80;2.75;;;8.50;99.90;;;7.49;100.00;100278.44;4218405;28;20028;-79
2021/03/13 05:07:55;;;;;;;7.43;2.08;;;8.50;99.90;;;7.51;100.00;100288.75;4209278;28;20035;-79
2021/03/13 05:09:56;;;;;;;9.55;2.50;;;8.50;99.90;;;7.61;100.00;100298.25;4219530;28;20109;-79
2021/03/13 05:11:57;;;;;;;8.05;3.15;;;8.50;99.90;;;7.44;100.00;100278.03;4218137;28;20056;-79
2021/03/13 05:13:57;;;;;;;12.50;3.78;;;8.40;99.90;;;7.53;100.00;100279.75;4218176;28;20028;-80
2021/03/13 05:15:59;;;;;;;14.68;4.35;;;8.40;99.90;;;7.57;100.00;100289.00;4219465;28;20429;-79
2021/03/13 05:18:00;;;;;;;10.30;4.03;;;8.40;99.90;;;7.49;100.00;100294.16;4218186;28;20020;-79
2021/03/13 05:20:03;;;;;;;8.82;3.25;;;8.40;99.90;;;7.38;100.00;100291.72;4219181;28;20054;-79
2021/03/13 05:22:04;;;;;;;11.80;2.92;;;8.30;99.90;;;7.39;100.00;100314.38;4217043;28;20063;-79
2021/03/13 05:24:05;;;;;;;15.82;3.40;;;8.30;99.90;;;7.34;100.00;100305.28;4219317;28;20032;-79
2021/03/13 05:26:06;;;;;;;12.20;2.97;;;8.30;99.90;;;7.51;100.00;100307.97;4218040;28;20061;-79
2021/03/13 05:28:07;;;;;;;13.35;2.53;;;8.30;99.90;;;7.45;100.00;100303.28;4219026;28;20059;-80
2021/03/13 05:30:10;;;;;;;13.30;3.67;;;8.30;99.90;;;7.43;100.00;100318.38;4201252;28;20021;-80
2021/03/13 05:32:11;;;;;;;14.32;3.13;;;8.30;99.90;;;7.33;100.00;100298.38;4210605;28;20032;-79
2021/03/13 05:34:12;;;;;;;18.15;5.28;;;8.30;99.90;;;7.43;100.00;100299.16;4212776;28;20035;-80
2021/03/13 05:36:13;;;;;;;15.88;4.43;;;8.30;99.90;;;7.43;100.00;100305.25;4219005;28;20028;-79
2021/03/13 05:38:14;;;;;;;14.35;3.75;;;8.30;99.90;;;7.51;100.00;100302.72;4217639;28;20016;-79
2021/03/13 05:40:15;;;;;;;19.13;3.90;;;8.30;99.90;;;7.47;100.00;100314.47;4219190;28;20028;-79
2021/03/13 05:42:17;;;;;;;22.48;3.65;;;8.30;99.90;;;7.52;100.00;100307.00;4219107;28;20024;-80
2021/03/13 05:44:19;;;;;;;13.55;4.10;;;8.40;99.90;;;7.58;100.00;100303.78;4218904;28;20034;-79
2021/03/13 05:46:20;;;;;;;15.85;3.53;;;8.40;99.90;;;7.50;100.00;100274.81;4230642;28;20021;-80
2021/03/13 05:48:23;;;;;;;21.27;3.83;;;8.40;99.90;;;7.58;100.00;100295.09;4207973;28;20399;-80
2021/03/13 05:50:27;;;;;;;27.02;4.03;;;8.40;99.90;;;7.50;100.00;100273.97;4211708;28;20024;-79
2021/03/13 05:52:34;;;;;;;19.38;5.15;;;8.50;99.90;;;7.67;100.00;100273.19;4217262;28;20032;-79
2021/03/13 05:54:35;;;;;;;17.40;4.35;;;8.50;99.90;;;7.41;100.00;100254.69;4206117;28;20512;-79
2021/03/13 05:56:36;;;;;;;20.92;5.70;;;8.40;99.90;;;7.52;100.00;100277.28;4210809;28;20513;-79
2021/03/13 05:58:38;;;;;;;22.52;4.15;;;8.40;99.90;;;7.42;100.00;100261.59;4200673;28;20040;-80
2021/03/13 06:00:41;;;;;;;25.17;7.65;;;8.40;99.90;;;7.44;100.00;100262.28;4217373;28;20062;-80
2021/03/13 06:02:42;;;;;;;23.52;7.20;;;8.30;99.90;;;7.59;100.00;100279.16;4222982;28;20516;-80
2021/03/13 06:04:43;;;;;;;20.60;4.63;;;8.30;99.90;;;7.64;99.01;100287.44;4200327;28;20025;-79
2021/03/13 06:06:48;;;;;;;18.40;5.28;;;8.30;99.90;;;7.51;98.23;100270.38;4216974;28;20020;-80
2021/03/13 06:08:50;;;;;;;26.38;5.50;;;8.30;99.90;;;7.36;97.42;100280.56;4234030;28;20015;-79
2021/03/13 06:10:51;;;;;;;18.30;5.80;;;8.20;99.90;;;7.27;97.25;100278.81;4206554;28;20020;-79
2021/03/13 06:12:51;;;;;;;19.40;5.45;;;8.10;99.90;;;7.26;97.60;100276.34;4200359;28;20028;-80
2021/03/13 06:14:55;;;;;;;27.00;6.43;;;8.10;99.90;;;7.43;95.21;100279.00;4218429;28;20031;-79
2021/03/13 06:16:57;;;;;;;21.85;6.28;;;8.00;99.90;;;7.43;95.60;100299.16;4217264;28;20031;-79
2021/03/13 06:18:58;;;;;;;22.40;6.10;;;8.10;99.90;;;7.22;96.01;100302.03;4217311;28;20020;-79
2021/03/13 06:20:59;;;;;;;23.48;6.30;;;8.10;99.90;;;7.18;96.98;100287.56;4200536;28;20033;-80
2021/03/13 06:23:14;;;;;;;22.58;6.53;;;8.00;99.90;;;7.20;96.57;100298.72;4218185;28;20032;-80
2021/03/13 06:25:25;;;;;;;26.65;7.18;;;7.90;99.90;;;7.22;96.19;100296.78;4218269;28;20063;-80
2021/03/13 06:27:26;;;;;;;19.77;5.50;;;7.90;99.90;;;7.14;97.01;100297.50;4217097;28;20526;-80
2021/03/13 06:29:29;;;;;;;23.75;6.47;;;7.90;99.90;;;7.20;96.57;100299.53;4216954;28;20042;-80
2021/03/13 06:31:30;;;;;;;29.60;7.60;;;7.90;99.90;;;7.18;96.22;100279.69;4215198;28;20552;-79
2021/03/13 06:33:33;;;;;;;24.20;6.10;;;7.90;99.90;;;7.19;96.70;100297.91;4206191;28;20031;-80
2021/03/13 06:35:38;;;;;;;24.02;7.57;;;8.00;99.90;;;7.46;95.29;100310.22;4217077;28;20020;-79
2021/03/13 06:37:39;;;;;;;27.95;7.03;;;8.00;99.90;;;7.27;96.19;100304.22;4217810;28;20027;-79
2021/03/13 06:39:40;;;;;;;28.75;6.68;;;8.10;99.90;;;7.45;95.14;100310.34;4216701;28;20024;-79
2021/03/13 06:41:41;;;;;;;30.27;7.57;;;8.10;99.90;;;7.36;95.83;100306.78;4205722;28;20024;-79
2021/03/13 06:43:43;;;;;;;22.25;6.18;;;8.20;99.90;;;7.43;95.51;100300.00;4218098;28;20024;-79
2021/03/13 06:46:03;;;;;;;27.95;5.07;;;8.20;99.90;;;7.52;95.46;100321.91;4216812;28;20035;-79
2021/03/13 06:48:04;;;;;;;25.92;6.18;;;8.30;99.90;;;7.47;96.08;100317.09;4206302;28;20055;-79
2021/03/13 06:50:15;;;;;;;27.48;5.47;;;8.30;99.90;;;7.41;95.66;100312.44;4216720;28;20036;-80
2021/03/13 06:52:20;;;;;;;25.38;4.93;;;8.30;99.90;;;7.47;95.85;100301.34;4212717;28;20024;-79
2021/03/13 06:54:21;;;;;;;23.52;5.10;;;8.30;99.90;;;7.68;95.58;100309.78;4199805;28;20028;-80
2021/03/13 06:56:29;;;;;;;21.70;4.68;;;8.30;99.90;;;7.82;95.41;100331.25;4218074;28;20028;-80
2021/03/13 06:58:31;;;;;;;34.13;7.70;;;8.40;99.90;;;7.82;94.58;100321.59;4217979;28;20031;-80
2021/03/13 07:00:35;;;;;;;35.88;8.05;;;8.50;99.90;;;7.48;96.51;100318.75;4199927;28;20036;-80
2021/03/13 07:02:36;;;;;;;;;;;8.50;99.90;;;7.53;97.43;100326.16;4217303;28;20054;-79
2021/03/13 07:04:42;;;;;;;26.20;6.03;;;8.40;99.90;;;7.76;96.68;100337.94;4200055;28;19908;-80
2021/03/13 07:06:45;;;;;;;34.38;6.03;;;8.50;99.90;;;7.68;97.12;100343.06;4216573;28;20028;-79
2021/03/13 07:08:51;;;;;;;28.17;5.97;;;8.50;99.90;;;7.77;97.38;100344.81;4216674;28;20035;-80
2021/03/13 07:11:13;;;;;;;40.45;7.07;;;8.60;99.90;;;7.74;97.27;100345.13;4200190;28;20059;-79
2021/03/13 07:13:42;;;;;;;25.10;7.18;;;8.60;99.90;;;7.98;96.10;100349.78;4217476;28;20047;-79
2021/03/13 07:15:43;;;;;;;37.60;7.20;;;8.70;99.90;;;7.87;96.55;100342.13;4216539;28;20082;-80
2021/03/13 07:17:53;;;;;;;29.15;6.43;;;8.70;99.90;;;8.04;96.15;100347.41;4207724;28;20025;-80
2021/03/13 07:19:53;;;;;;;24.58;6.65;;;8.80;99.90;;;8.14;95.39;100342.09;4214781;28;20036;-79
2021/03/13 07:21:55;;;;;;;30.83;6.65;;;8.90;99.90;;;8.23;95.00;100360.41;4216595;28;20051;-80
2021/03/13 07:23:57;;;;;;;29.83;6.78;;;8.90;99.90;;;8.16;94.73;100355.88;4206482;28;20028;-80
2021/03/13 07:25:58;;;;;;;28.52;6.68;;;9.00;99.90;;;8.04;95.62;100357.91;4211162;28;20063;-80
2021/03/13 07:28:00;;;;;;;27.25;7.45;;;8.90;99.90;;;8.06;95.59;100370.91;4216579;28;20123;-80
2021/03/13 07:30:02;;;;;;;25.33;6.15;;;8.90;99.90;;;8.00;95.82;100353.13;4204340;28;20036;-80
2021/03/13 07:32:04;;;;;;;32.20;7.05;;;8.90;99.90;;;7.98;95.31;100349.78;4216589;28;20064;-80
2021/03/13 07:34:12;;;;;;;38.15;7.15;;;8.80;99.90;;;8.07;94.92;100372.53;4243310;28;20127;-79
2021/03/13 07:36:18;;;;;;;37.10;9.45;;;8.80;99.90;;;8.00;95.47;100366.25;4217653;28;20031;-79
2021/03/13 07:38:25;;;;;;;42.45;9.50;;;8.80;99.90;;;8.06;94.68;100381.41;4216321;28;20058;-79
2021/03/13 07:40:26;;;;;;;30.80;7.13;;;8.80;99.90;;;7.98;95.70;100374.25;4217830;28;20024;-80
2021/03/13 07:42:27;;;;;;;30.33;7.45;;;8.90;99.90;;;8.00;95.99;100379.38;4216481;28;20049;-80
2021/03/13 07:44:30;;;;;;;38.42;9.15;;;9.00;99.90;;;8.09;95.51;100384.59;4214932;28;20062;-80
2021/03/13 07:46:33;;;;;;;37.67;10.65;;;9.00;99.90;;;8.25;94.45;100382.09;4218896;28;20028;-80
2021/03/13 07:48:37;;;;;;;33.03;8.18;;;9.10;99.90;;;8.24;92.94;100387.50;4219638;28;20052;-80
2021/03/13 07:50:39;;;;;;;42.85;9.23;;;9.20;99.90;;;8.34;92.59;100402.25;4219523;28;20032;-80
2021/03/13 07:52:43;;;;;;;33.38;7.35;;;9.40;99.90;;;8.47;91.29;100412.41;4218882;28;20032;-80
2021/03/13 07:54:49;;;;;;;36.83;7.80;;;9.40;99.90;;;8.44;91.58;100417.97;4208705;28;20020;-80
2021/03/13 07:56:51;;;;;;;32.58;7.75;;;9.40;99.90;;;8.46;90.67;100413.38;4212697;28;20032;-80
2021/03/13 07:58:52;;;;;;;32.55;8.27;;;9.40;99.90;;;8.61;90.37;100424.19;4202517;28;20111;-80
2021/03/13 08:00:55;;;;;;;34.83;7.45;;;9.60;99.90;;;8.57;89.66;100405.25;4232900;28;20024;-80
2021/03/13 08:02:56;;;;;;;31.42;6.88;;;9.60;99.90;;;8.58;90.61;100414.78;4209488;28;20032;-80
2021/03/13 08:05:14;;;;;;;36.95;7.03;;;9.60;99.90;;;8.45;90.24;100403.84;4220449;28;20039;-79
2021/03/13 08:07:15;;;;;;;31.92;9.02;;;9.60;99.90;;;8.50;90.37;100408.63;4220139;28;20157;-80
2021/03/13 08:09:25;;;;;;;37.92;7.03;;;9.60;99.90;;;8.59;87.92;100416.44;4219240;28;20040;-80
2021/03/13 08:11:46;;;;;;;29.15;7.93;;;9.50;99.90;;;8.63;86.72;100438.81;4212585;28;20552;-79
2021/03/13 08:14:00;;;;;;;28.17;6.00;;;9.70;99.90;;;8.57;85.21;100430.72;4218568;28;20036;-79
2021/03/13 08:16:10;;;;;;;28.15;6.35;;;9.70;99.90;;;8.57;83.44;100415.75;4218898;28;20534;-80
2021/03/13 08:18:31;;;;;;;34.17;6.60;;;9.70;99.90;;;8.81;84.26;100430.94;4214527;28;20032;-80
2021/03/13 08:20:33;;;;;;;25.05;6.55;;;9.80;99.90;;;8.80;79.88;100424.84;4226449;27;20059;-80
2021/03/13 08:22:34;;;;;;;26.95;6.47;;;9.80;99.90;;;8.94;83.67;100438.41;4218788;28;20032;-80
2021/03/13 08:24:52;;;;;;;27.33;6.72;;;9.90;99.90;;;8.69;80.28;100443.47;4213779;28;20042;-79
2021/03/13 08:26:56;;;;;;;28.13;7.25;;;9.90;99.90;;;8.72;78.23;100440.53;4207288;28;20024;-80
2021/03/13 08:28:57;;;;;;;30.45;5.32;;;9.80;99.90;;;8.69;80.38;100437.41;4220449;28;20016;-80
2021/03/13 08:33:27;;;;;;;25.98;5.95;;;9.60;99.90;;;8.50;79.89;100441.00;4220040;28;20064;-79
2021/03/13 08:35:49;;;;;;;21.40;5.72;;;9.60;99.90;;;8.62;80.73;100439.81;4219952;28;20461;-80
2021/03/13 08:37:49;;;;;;;19.98;4.97;;;9.50;99.90;;;8.72;80.46;100437.13;4219635;28;20562;-80
2021/03/13 08:39:50;;;;;;;27.90;6.10;;;9.60;99.90;;;8.74;78.52;100432.50;4219668;28;20032;-80